Yuanmou, China
Current Conditions -  °F | °C
As of 11:00 AM on Saturday 22 Nov 2014 (Local Time) from ZPPP Reporting Station
Scattered Clouds Scattered Clouds  
Wind Chill: 57°   Ceiling: Unl
Heat Index: 57°   Visibility: 6mi
Dew Point: 41°   Wind: 22mph
Humidity: 55%   Direction: 230°SW
Pressure: 30.18"   Gusts: NA
Location:  25.73°N, 101.87°E
Report Text: ZPPP 220300Z 23010MPS 9999 SCT026 14/05 Q1022 NOSIG
Loading
Personal Weather Stations






























Interactive Weather Map New forecast layout! Learn more

10-Day Weather Forecast

Advertisements
Track Severe Weather on mobile